Ardmore, OK (73401)

6:19 PM CDT on September 22, 2014 (GMT -0500)
Ardmore Weather Live | Change Station
CLOSE
Current Station
Personal Weather Station
Location: Ardmore, Ok
Elevation: 810 ft
Nearby Weather Stations

Elev 810 ft 34.15 °N, 97.11 °W | Updated 10 seconds ago

Clear
Clear
78.1 °F
Feels Like 79 °F
N
0.0
Wind Variable Wind from NE
Gusts 0.0 mph

Today
High -- | Low -- °F
--% Chance of Precip.
Yesterday
High -- | Low -- °F
Precip. -- in
7:16 AM 7:25 PM
Waning Crescent, 2% visible
Pressure 30.14 in
Visibility 10.0 miles
Clouds Clear
Heat Index 79 °F
Dew Point 54 °F
Humidity 43%
Rainfall 0.00 in
Snow Depth Not available.
UV 0.0 out of 12
Pollen 10.50 out of 12
Air Quality Not available.
Flu Activity Not available.
METAR K1F0 222255Z AUTO 00000KT 10SM CLR 27/08 A3014 RMK AO2

More Conditions Fewer Conditions

Pressure 30.14 in
Visibility 10.0 miles
Clouds Clear
Heat Index 79 °F
Dew Point 54 °F
Humidity 43%
Rainfall 0.00 in
Snow Depth Not available.
UV 0.0 out of 12
Pollen 10.50 out of 12
Air Quality Not available.
Flu Activity Not available.
METAR K1F0 222255Z AUTO 00000KT 10SM CLR 27/08 A3014 RMK AO2

More Conditions Fewer Conditions

10-Day Weather Forecast

Almanac

Astronomy

Sep. 22, 2014 Rise Set
Actual Time 7:16 AM CDT 7:25 PM CDT
Civil Twilight 6:51 AM CDT 7:50 PM CDT
Nautical Twilight 6:22 AM CDT 8:19 PM CDT
Astronomical Twilight 5:52 AM CDT 8:48 PM CDT
Moon 5:49 AM CDT 6:31 PM CDT
Length of Visible Light 12h 58m
Length of Day
12h 08m
Tomorrow will be 2m 7s shorter.
Waning Crescent, 2% of the Moon is Illuminated
Today
Waning Crescent
Sep 24
New
Oct 1
First Quarter
Oct 8
Full
Oct 15
Last Quarter

Today's Extremes

State Highs State Lows

Community

WunderPhotos

Upload Photos

1,755,548 photos uploaded!

Nearby

Snow Depth

Station Depth Elevation
No new snow has been reported.

Earthquake Activity

City Distance Mag. Time & Date
Bray, Oklahoma 38 miles 3.6 2:28 PM CDT
2014-09-22
Luther, Oklahoma 104 miles 2.7 4:47 PM CDT
2014-09-19
Guthrie, Oklahoma 115 miles 3.6 12:23 PM CDT
2014-09-19
Minimum magnitude displayed is 2.5.

Coastal Water Temperatures

Place Temperature
No Stations Reporting

Nearby Weather Stations